Latest Weather Observations for Mount Read

IDT60801

Issued at 9:41 am EDT Tuesday 22 January 2019 (issued every 10 minutes, with the page automatically refreshed every 10 minutes)

About weather observations | Map of weather stations | Latest weather observations for TAS | Other Formats
Station Details ID: 097085 Name: MOUNT READ Lat: -41.84 Lon: 145.54 Height: 1119.5 m
Data from the previous 72 hours. | See also: Recent months at Mount Read
Date/Time
EDT
Temp
°C
App
Temp
°C
Dew
Point
°C
Rel
Hum
%
Delta-T
°C
Wind Press
QNH
hPa
Press
MSL
hPa
Rain since
9am
mm
Dir  Spd
km/h
Gust
km/h
Spd
kts
Gust
kts
22/09:30am 14.7 10.5 9.7 72 2.7 WNW 22 30 12 16 1015.7 1013.9 0.0
22/09:00am 14.3 10.5 9.7 74 2.5 WNW 20 28 11 15 1015.4 1013.6 0.0
22/08:30am 13.6 9.7 9.5 76 2.2 WNW 20 28 11 15 1015.2 1013.4 0.0
22/08:00am 12.9 8.2 9.4 79 1.9 WNW 24 30 13 16 1015.0 1013.2 0.0
22/07:30am 12.5 7.4 9.1 80 1.8 WNW 26 32 14 17 1015.0 1013.2 0.0
22/07:00am 12.2 6.0 9.2 82 1.6 WNW 32 37 17 20 1014.9 1013.1 0.0
22/06:30am 12.4 6.0 9.2 81 1.7 WNW 33 37 18 20 1014.9 1013.1 0.0
22/06:00am 12.0 6.2 9.6 85 1.3 WNW 30 32 16 17 1014.9 1013.1 0.0
22/05:30am 11.8 6.6 8.8 82 1.6 WNW 26 28 14 15 1014.8 1012.9 0.0
22/05:00am 12.2 7.0 9.0 81 1.7 WNW 26 30 14 16 1014.8 1012.9 0.0
22/04:30am 12.2 7.3 6.9 70 2.7 WNW 22 26 12 14 1014.9 1013.1 0.0
22/04:00am 12.5 7.9 6.5 67 3.0 NW 20 26 11 14 1015.2 1013.4 0.0
22/03:30am 12.5 7.7 7.4 71 2.6 WNW 22 24 12 13 1015.6 1013.7 0.0
22/03:00am 12.9 8.7 8.4 74 2.4 WNW 20 22 11 12 1016.0 1014.2 0.0
22/02:30am 13.0 8.9 7.7 70 2.8 WNW 19 20 10 11 1016.1 1014.3 0.0
22/02:00am 13.3 9.1 8.2 71 2.7 WNW 20 22 11 12 1016.3 1014.5 0.0
22/01:30am 13.5 9.0 8.4 71 2.7 WNW 22 24 12 13 1016.4 1014.7 0.0
22/01:00am 13.6 8.6 8.0 69 2.9 W 24 30 13 16 1016.8 1015.0 0.0
22/12:30am 13.7 9.4 7.7 67 3.1 W 20 26 11 14 1017.1 1015.3 0.0
22/12:00am 13.7 9.4 7.7 67 3.1 W 20 24 11 13 1017.4 1015.7 0.0
 
Date/Time
EDT
Temp
°C
App
Temp
°C
Dew
Point
°C
Rel
Hum
%
Delta-T
°C
Wind Press
QNH
hPa
Press
MSL
hPa
Rain since
9am
mm
Dir  Spd
km/h
Gust
km/h
Spd
kts
Gust
kts
21/11:30pm 13.9 9.2 7.9 67 3.2 W 22 26 12 14 1017.6 1015.8 0.0
21/11:00pm 13.8 9.0 7.3 65 3.4 WSW 22 24 12 13 1017.7 1015.9 0.0
21/10:30pm 14.4 8.4 1.3 41 6.0 WSW 22 24 12 13 1017.7 1015.9 0.0
21/10:00pm 14.7 8.1 2.3 43 5.8 WSW 26 30 14 16 1017.8 1016.0 0.0
21/09:30pm 14.5 7.5 -6.9 22 8.3 WSW 22 26 12 14 1017.7 1015.9 0.0
21/09:00pm 15.2 9.4 -0.1 35 6.9 WSW 20 24 11 13 1017.6 1015.8 0.0
21/08:30pm 16.1 11.4 0.7 35 7.1 W 15 20 8 11 1017.6 1015.8 0.0
21/08:00pm 17.3 13.4 0.9 33 7.7 WSW 11 17 6 9 1017.7 1015.9 0.0
21/07:30pm 17.8 13.8 2.9 37 7.3 WSW 13 19 7 10 1017.6 1015.8 0.0
21/07:00pm 17.9 14.5 3.8 39 7.0 SSW 11 15 6 8 1017.8 1016.0 0.0
21/06:30pm 18.6 16.4 5.5 42 6.8 WSW 6 11 3 6 1017.9 1016.1 0.0
21/06:00pm 18.8 15.1 4.6 39 7.2 SW 13 19 7 10 1018.0 1016.3 0.0
21/05:30pm 19.1 13.9 0.2 28 8.8 WSW 17 24 9 13 1018.1 1016.4 0.0
21/05:00pm 19.9 15.8 4.4 36 7.9 WSW 15 22 8 12 1018.5 1016.7 0.0
21/04:30pm 19.4 16.0 9.0 51 5.8 WNW 17 28 9 15 1018.6 1016.8 0.0
21/04:00pm 19.2 16.9 10.5 57 4.9 WNW 13 24 7 13 1018.7 1016.9 0.0
21/03:30pm 19.0 16.3 11.6 62 4.3 WNW 17 26 9 14 1018.7 1016.9 0.0
21/03:00pm 19.8 18.1 11.3 58 4.9 NNW 11 28 6 15 1018.9 1017.2 0.0
21/02:30pm 19.4 16.5 12.4 64 4.1 NW 19 30 10 16 1018.9 1017.2 0.0
21/02:00pm 19.4 16.8 11.9 62 4.4 NW 17 32 9 17 1019.2 1017.5 0.0
21/01:30pm 19.7 16.6 11.7 60 4.7 WNW 19 28 10 15 1019.3 1017.6 0.0
21/01:00pm 19.3 17.1 12.1 63 4.2 NW 15 32 8 17 1019.6 1017.9 0.0
21/12:30pm 18.8 16.8 11.6 63 4.2 WNW 13 24 7 13 1019.9 1018.2 0.0
21/12:00pm 18.5 17.0 10.6 60 4.5 NW 9 15 5 8 1019.9 1018.2 0.0
21/11:30am 18.2 17.5 11.5 65 3.9 WNW 6 13 3 7 1019.9 1018.2 0.0
21/11:00am 17.1 16.5 10.5 65 3.7 WNW 4 11 2 6 1020.0 1018.3 0.0
21/10:30am 16.8 15.8 10.4 66 3.6 SW 6 13 3 7 1020.0 1018.3 0.0
21/10:00am 16.1 15.0 9.8 66 3.5 WNW 6 11 3 6 1020.1 1018.4 0.0
21/09:30am 15.9 12.5 7.7 58 4.4 W 15 20 8 11 1020.2 1018.5 0.0
21/09:00am 15.6 11.8 9.9 69 3.1 W 20 24 11 13 1020.2 1018.5 0.0
21/08:30am 15.2 10.7 8.7 65 3.5 WNW 22 30 12 16 1020.1 1018.4 0.0
21/08:00am 14.8 9.7 7.6 62 3.8 W 24 28 13 15 1019.8 1018.1 0.0
21/07:30am 14.4 9.3 7.5 63 3.6 WNW 24 28 13 15 1019.7 1018.0 0.0
21/07:00am 14.4 9.4 7.9 65 3.4 WNW 24 28 13 15 1019.8 1018.1 0.0
21/06:30am 14.3 8.8 7.4 63 3.6 WNW 26 28 14 15 1019.6 1017.9 0.0
21/06:00am 14.6 8.9 6.9 60 4.0 WNW 26 30 14 16 1019.5 1017.7 0.0
21/05:30am 14.6 9.2 6.4 58 4.2 WNW 24 26 13 14 1019.5 1017.7 0.0
21/05:00am 14.5 9.5 6.3 58 4.2 WNW 22 22 12 12 1019.5 1017.7 0.0
21/04:30am 14.4 9.8 6.3 58 4.1 WNW 20 22 11 12 1019.7 1018.0 0.0
21/04:00am 14.4 9.9 6.0 57 4.3 WNW 19 20 10 11 1019.9 1018.2 0.0
21/03:30am 14.1 10.0 6.0 58 4.1 WNW 17 19 9 10 1020.3 1018.7 0.0
21/03:00am 13.9 9.9 6.5 61 3.8 WNW 17 19 9 10 1020.6 1018.9 0.0
21/02:30am 13.8 9.7 6.4 61 3.8 W 17 19 9 10 1020.9 1019.2 0.0
21/02:00am 14.1 9.6 6.9 62 3.7 W 20 20 11 11 1021.1 1019.5 0.0
21/01:30am 13.4 8.5 5.1 57 4.1 W 20 20 11 11 1021.4 1019.7 0.0
21/01:00am 13.6 9.3 5.3 57 4.1 W 17 17 9 9 1021.7 1020.0 0.0
21/12:30am 13.5 9.2 5.4 58 4.0 WSW 17 19 9 10 1021.7 1020.0 0.0
21/12:00am 13.4 9.1 5.3 58 4.0 WSW 17 19 9 10 1021.8 1020.1 0.0
 
Date/Time
EDT
Temp
°C
App
Temp
°C
Dew
Point
°C
Rel
Hum
%
Delta-T
°C
Wind Press
QNH
hPa
Press
MSL
hPa
Rain since
9am
mm
Dir  Spd
km/h
Gust
km/h
Spd
kts
Gust
kts
20/11:30pm 13.1 9.1 6.5 64 3.4 WSW 17 19 9 10 1022.0 1020.4 0.0
20/11:00pm 12.4 6.9 -1.9 37 6.0 SW 17 19 9 10 1022.2 1020.6 0.0
20/10:30pm 12.5 7.4 0.9 45 5.2 SW 17 19 9 10 1022.4 1020.7 0.0
20/10:00pm 12.1 6.9 2.3 51 4.5 SW 19 22 10 12 1022.2 1020.6 0.0
20/09:30pm 12.4 6.4 3.4 54 4.3 SW 24 28 13 15 1021.7 1020.0 0.0
20/09:00pm 12.4 7.1 4.9 60 3.7 SW 22 24 12 13 1021.5 1019.8 0.0
20/08:30pm 13.2 7.5 4.9 57 4.1 SW 24 28 13 15 1021.4 1019.7 0.0
20/08:00pm 13.7 8.6 6.1 60 3.8 SW 22 28 12 15 1021.2 1019.6 0.0
20/07:30pm 14.5 11.2 8.0 65 3.4 WSW 15 22 8 12 1021.1 1019.5 0.0
20/07:00pm 15.2 11.9 8.0 62 3.8 WSW 15 24 8 13 1021.2 1019.6 0.0
20/06:30pm 15.4 12.4 9.1 66 3.4 WSW 15 22 8 12 1021.0 1019.3 0.0
20/06:00pm 15.0 13.4 11.6 80 1.9 W 11 20 6 11 1021.2 1019.6 0.0
20/05:30pm 15.0 13.2 10.8 76 2.4 WSW 11 20 6 11 1021.4 1019.7 0.0
20/05:00pm 14.4 12.5 11.7 84 1.5 SW 13 20 7 11 1021.5 1019.8 0.0
20/04:30pm 13.5 11.2 11.7 89 1.0 SW 15 26 8 14 1021.6 1019.9 0.0
20/04:00pm 13.4 9.4 11.8 90 0.9 SW 24 41 13 22 1021.8 1020.1 0.0
20/03:30pm 13.6 9.4 12.3 92 0.7 SW 26 41 14 22 1021.6 1019.9 0.0
20/03:00pm 13.3 9.4 12.2 93 0.6 SW 24 35 13 19 1021.7 1020.0 0.0
20/02:30pm 13.2 9.0 12.3 94 0.5 SW 26 39 14 21 1021.6 1019.9 0.0
20/02:22pm 13.4 9.7 12.8 96 0.3 SW 24 48 13 26 1021.7 1020.0 0.0
20/02:20pm 12.9 9.2 12.6 98 0.2 SW 24 48 13 26 1021.7 1020.0 0.0
20/02:00pm 13.4 12.3 13.2 99 0.1 SSW 11 24 6 13 1021.9 1020.2 0.0
20/01:30pm 13.5 12.1 13.5 100 0.0 SW 13 22 7 12 1021.9 1020.2 0.0
20/01:00pm 12.7 11.5 12.7 100 0.0 SW 11 22 6 12 1021.8 1020.1 0.0
20/12:30pm 12.4 10.3 12.4 100 0.0 SW 15 28 8 15 1021.8 1020.1 0.0
20/12:00pm 11.1 8.6 11.1 100 0.0 SW 15 28 8 15 1021.7 1020.0 0.0
20/11:30am 10.9 7.3 10.7 99 0.1 SW 20 33 11 18 1021.7 1020.0 0.0
20/11:00am 10.5 6.8 10.3 99 0.1 SSW 20 26 11 14 1021.4 1019.7 0.0
20/10:30am 10.3 6.8 10.1 99 0.1 SW 19 26 10 14 1021.5 1019.8 0.0
20/10:00am 9.9 6.1 9.8 99 0.1 SW 20 33 11 18 1021.1 1019.5 0.0
20/09:30am 9.1 3.9 9.0 99 0.1 SW 26 33 14 18 1020.7 1019.0 0.0
20/09:00am 8.8 4.3 8.7 99 0.1 SW 22 30 12 16 1020.6 1018.9 3.0
20/08:30am 8.2 3.6 8.1 99 0.1 SW 22 28 12 15 1020.3 1018.7 3.0
20/08:00am 7.6 2.1 7.5 99 0.0 SW 26 32 14 17 1020.0 1018.3 3.0
20/07:30am 7.5 2.3 7.4 99 0.0 SW 24 32 13 17 1019.8 1018.1 3.0
20/07:00am 7.6 1.7 7.5 99 0.0 SW 28 32 15 17 1019.2 1017.5 3.0
20/06:30am 7.7 1.1 7.6 99 0.1 SW 32 37 17 20 1019.2 1017.5 3.0
20/06:00am 7.6 0.8 7.5 99 0.0 SW 33 46 18 25 1019.1 1017.4 3.0
20/05:30am 7.3 1.3 7.2 99 0.0 WSW 28 35 15 19 1019.0 1017.3 3.0
20/05:00am 7.1 0.7 7.0 99 0.0 WSW 30 39 16 21 1018.9 1017.2 3.0
20/04:30am 7.1 1.1 7.0 99 0.0 W 28 35 15 19 1018.9 1017.2 3.0
20/04:00am 6.8 1.9 6.7 99 0.0 W 22 28 12 15 1019.0 1017.3 3.0
20/03:30am 6.9 -0.1 6.8 99 0.0 W 33 37 18 20 1018.9 1017.2 2.8
20/03:00am 7.5 1.6 7.4 99 0.0 W 28 37 15 20 1019.3 1017.6 2.8
20/02:30am 7.6 1.3 7.5 99 0.1 W 30 39 16 21 1019.7 1018.0 2.8
20/02:00am 8.0 1.8 7.9 99 0.1 WSW 30 43 16 23 1019.7 1018.0 2.8
20/01:30am 7.8 2.3 7.7 99 0.1 WSW 26 35 14 19 1019.9 1018.2 2.8
20/01:00am 8.3 3.7 8.2 99 0.1 WSW 22 30 12 16 1020.3 1018.7 2.6
20/12:30am 8.1 2.3 8.0 99 0.1 W 28 41 15 22 1020.5 1018.8 2.2
20/12:00am 7.9 1.7 7.8 99 0.1 W 30 43 16 23 1020.3 1018.7 2.2
 
Date/Time
EDT
Temp
°C
App
Temp
°C
Dew
Point
°C
Rel
Hum
%
Delta-T
°C
Wind Press
QNH
hPa
Press
MSL
hPa
Rain since
9am
mm
Dir  Spd
km/h
Gust
km/h
Spd
kts
Gust
kts
19/11:30pm 8.0 2.2 7.9 99 0.1 W 28 43 15 23 1020.3 1018.7 2.2
19/11:00pm 8.0 1.8 7.9 99 0.1 W 30 41 16 22 1020.3 1018.7 2.2
19/10:30pm 8.0 3.3 7.9 99 0.1 W 22 33 12 18 1020.5 1018.8 2.0
19/10:00pm 7.7 3.0 7.6 99 0.1 W 22 30 12 16 1020.3 1018.7 1.8
19/09:30pm 7.5 2.7 7.4 99 0.0 W 22 30 12 16 1019.9 1018.2 1.6
19/09:00pm 7.3 2.1 7.2 99 0.0 W 24 33 13 18 1019.6 1017.9 1.2
19/08:30pm 7.4 2.6 7.3 99 0.0 WNW 22 32 12 17 1019.3 1017.6 0.8
19/08:00pm 7.1 2.6 7.0 99 0.0 WNW 20 28 11 15 1019.3 1017.6 0.4
19/07:30pm 7.0 2.7 6.9 99 0.0 WNW 19 28 10 15 1019.3 1017.6 0.0
19/07:00pm 6.8 2.4 6.7 99 0.0 WNW 19 28 10 15 1018.9 1017.2 0.0
19/06:30pm 7.1 2.6 7.0 99 0.0 W 20 28 11 15 1018.9 1017.2 0.0
19/06:00pm 7.1 2.6 7.0 99 0.0 W 20 32 11 17 1018.8 1017.1 0.0
19/05:30pm 7.4 3.1 6.8 96 0.3 WNW 19 30 10 16 1018.9 1017.2 0.0
19/05:00pm 8.3 4.1 5.9 85 1.2 W 17 24 9 13 1019.0 1017.3 0.0
19/04:30pm 8.3 2.4 5.6 83 1.3 WNW 26 33 14 18 1019.3 1017.6 0.0
19/04:00pm 8.5 3.4 5.8 83 1.3 WNW 22 32 12 17 1019.5 1017.7 0.0
19/03:30pm 8.5 4.4 7.7 95 0.4 W 19 30 10 16 1019.5 1017.7 0.0
19/03:00pm 8.2 2.9 6.8 91 0.7 W 24 32 13 17 1019.6 1017.9 0.0
19/02:30pm 9.0 2.8 6.3 83 1.3 W 28 43 15 23 1019.5 1017.7 0.0
19/02:00pm 10.0 4.2 6.2 77 1.9 W 26 37 14 20 1019.2 1017.5 0.0
19/01:30pm 9.2 3.9 6.6 84 1.3 W 24 35 13 19 1019.1 1017.4 0.0
19/01:00pm 9.2 4.3 6.8 85 1.2 WNW 22 32 12 17 1019.0 1017.3 0.0
19/12:30pm 8.4 2.9 7.6 95 0.4 W 26 39 14 21 1018.9 1017.2 0.0
19/12:00pm 7.8 3.1 7.7 99 0.1 W 22 30 12 16 1018.8 1017.1 0.0
19/11:30am 7.3 2.1 7.2 99 0.0 W 24 33 13 18 1018.7 1016.9 0.0
19/11:00am 7.0 1.0 6.9 99 0.0 W 28 37 15 20 1018.3 1016.6 0.0
19/10:30am 6.8 1.1 6.7 99 0.0 W 26 37 14 20 1017.8 1016.0 0.0
19/10:00am 6.7 2.7 6.6 99 0.0 W 17 26 9 14 1017.9 1016.1 0.0

Other Formats:

Comma delimited format used in spreadsheet applications
http://www.bom.gov.au/fwo/IDT60801/IDT60801.95952.axf

JavaScript Object Notation format (JSON) in row-major order
http://www.bom.gov.au/fwo/IDT60801/IDT60801.95952.json